This is the latest recevied weather packets stored in our database for station/object SA7AHC. If no packets are shown the sender has not sent any weather packets the latest 1 day(s).
| Time | Temp. | Humidity | Pressure | Rain* | Wind** | Luminosity | Snow |
|---|---|---|---|---|---|---|---|
| 1778102264 | 2.22° C | 65% | 1013.7 hPa | 0 mm | - | 0 W/m² | - |
| 1778101055 | 3.33° C | 58% | 1013.5 hPa | 0 mm | - | 0 W/m² | - |
| 1778099849 | 3.33° C | 60% | 1013.6 hPa | 0 mm | - | 0 W/m² | - |
| 1778099248 | 3.33° C | 60% | 1013.6 hPa | 0 mm | - | 0 W/m² | - |
| 1778097433 | 4.44° C | 57% | 1013.5 hPa | 0 mm | - | 0 W/m² | - |
| 1778093825 | 6.11° C | 57% | 1013.4 hPa | 0 mm | - | 0 W/m² | - |
| 1778091999 | 7.22° C | 51% | 1013.1 hPa | 0 mm | - | 11 W/m² | - |
| 1778090796 | 7.78° C | 49% | 1012.9 hPa | 0 mm | - | 19 W/m² | - |
| 1778089003 | 9.44° C | 44% | 1012.9 hPa | 0 mm | - | 37 W/m² | - |
| 1778088395 | 9.44° C | 42% | 1012.9 hPa | 0 mm | - | 51 W/m² | - |
| 1778085390 | 11.11° C | 40% | 1012.9 hPa | 0 mm | - | 290 W/m² | - |
| 1778084793 | 11.11° C | 39% | 1012.9 hPa | 0 mm | - | 230 W/m² | - |
| 1778083588 | 11.11° C | 42% | 1012.9 hPa | 0 mm | - | 241 W/m² | - |
| 1778082982 | 11.67° C | 41% | 1012.9 hPa | 0 mm | - | 181 W/m² | - |
| 1778081784 | 12.22° C | 41% | 1013 hPa | 0 mm | - | 262 W/m² | - |
| 1778079368 | 12.22° C | 38% | 1013.1 hPa | 0 mm | - | 301 W/m² | - |
| 1778076364 | 12.78° C | 39% | 1013.1 hPa | 0 mm | - | 482 W/m² | - |
| 1778074551 | 12.22° C | 38% | 1012.7 hPa | 0 mm | - | 380 W/m² | - |
| 1778073956 | 12.22° C | 41% | 1012.7 hPa | 0 mm | - | 325 W/m² | - |
| 1778073341 | 12.22° C | 41% | 1012.7 hPa | 0 mm | - | 496 W/m² | - |
| 1778071539 | 12.78° C | 39% | 1012.9 hPa | 0 mm | - | 538 W/m² | - |
| 1778070335 | 12.78° C | 42% | 1012.8 hPa | 0 mm | - | 445 W/m² | - |
| 1778067324 | 12.22° C | 43% | 1013 hPa | 0 mm | - | 313 W/m² | - |
| 1778063713 | 12.22° C | 43% | 1013.4 hPa | 0 mm | - | 613 W/m² | - |
| 1778063108 | 11.67° C | 44% | 1013.3 hPa | 0 mm | - | 582 W/m² | - |
* Rain latest hour (hover to see other rain measurements)
** Current wind speed in m/s (hover to see current wind gust speed)